sensor_id;sensor_type;location;lat;lon;timestamp;P1;durP1;ratioP1;P2;durP2;ratioP2
43086;SDS011;28708;52.224;6.924;2022-12-10T00:00:54;116.80;;;57.00;;
43086;SDS011;28708;52.224;6.924;2022-12-10T00:03:20;119.93;;;55.37;;
43086;SDS011;28708;52.224;6.924;2022-12-10T00:05:45;122.20;;;58.63;;
43086;SDS011;28708;52.224;6.924;2022-12-10T00:08:11;119.77;;;56.33;;
43086;SDS011;28708;52.224;6.924;2022-12-10T00:10:40;117.83;;;56.40;;
43086;SDS011;28708;52.224;6.924;2022-12-10T00:13:05;124.33;;;58.13;;
43086;SDS011;28708;52.224;6.924;2022-12-10T00:15:34;115.00;;;55.80;;
43086;SDS011;28708;52.224;6.924;2022-12-10T00:18:00;112.60;;;54.83;;
43086;SDS011;28708;52.224;6.924;2022-12-10T00:20:25;115.07;;;56.53;;
43086;SDS011;28708;52.224;6.924;2022-12-10T00:22:51;113.97;;;55.40;;
43086;SDS011;28708;52.224;6.924;2022-12-10T00:25:17;118.17;;;60.43;;
43086;SDS011;28708;52.224;6.924;2022-12-10T00:27:42;120.40;;;56.33;;
43086;SDS011;28708;52.224;6.924;2022-12-10T00:30:08;120.23;;;56.47;;
43086;SDS011;28708;52.224;6.924;2022-12-10T00:32:34;128.20;;;58.57;;
43086;SDS011;28708;52.224;6.924;2022-12-10T00:35:00;124.67;;;59.83;;
43086;SDS011;28708;52.224;6.924;2022-12-10T00:37:26;220.13;;;64.33;;
43086;SDS011;28708;52.224;6.924;2022-12-10T00:39:52;133.07;;;59.83;;
43086;SDS011;28708;52.224;6.924;2022-12-10T00:42:17;140.57;;;58.50;;
43086;SDS011;28708;52.224;6.924;2022-12-10T00:44:44;141.57;;;59.87;;
43086;SDS011;28708;52.224;6.924;2022-12-10T00:47:10;170.30;;;59.83;;
43086;SDS011;28708;52.224;6.924;2022-12-10T00:49:35;169.13;;;57.80;;
43086;SDS011;28708;52.224;6.924;2022-12-10T00:52:01;190.27;;;61.60;;
43086;SDS011;28708;52.224;6.924;2022-12-10T00:54:29;308.10;;;65.67;;
43086;SDS011;28708;52.224;6.924;2022-12-10T00:56:55;253.47;;;63.43;;
43086;SDS011;28708;52.224;6.924;2022-12-10T00:59:20;347.37;;;69.77;;
43086;SDS011;28708;52.224;6.924;2022-12-10T01:01:46;464.33;;;71.83;;
43086;SDS011;28708;52.224;6.924;2022-12-10T01:04:13;251.40;;;69.60;;
43086;SDS011;28708;52.224;6.924;2022-12-10T01:06:50;220.57;;;68.77;;
43086;SDS011;28708;52.224;6.924;2022-12-10T01:09:18;178.80;;;62.50;;
43086;SDS011;28708;52.224;6.924;2022-12-10T01:11:47;144.63;;;59.57;;
43086;SDS011;28708;52.224;6.924;2022-12-10T01:14:16;201.60;;;64.17;;
43086;SDS011;28708;52.224;6.924;2022-12-10T01:16:47;270.63;;;65.03;;
43086;SDS011;28708;52.224;6.924;2022-12-10T01:19:15;200.60;;;63.90;;
43086;SDS011;28708;52.224;6.924;2022-12-10T01:21:41;160.30;;;61.97;;
43086;SDS011;28708;52.224;6.924;2022-12-10T01:24:07;141.07;;;59.03;;
43086;SDS011;28708;52.224;6.924;2022-12-10T01:26:33;147.13;;;60.00;;
43086;SDS011;28708;52.224;6.924;2022-12-10T01:29:00;141.87;;;59.43;;
43086;SDS011;28708;52.224;6.924;2022-12-10T01:31:28;141.10;;;58.20;;
43086;SDS011;28708;52.224;6.924;2022-12-10T01:33:57;145.00;;;60.47;;
43086;SDS011;28708;52.224;6.924;2022-12-10T01:36:27;131.30;;;56.37;;
43086;SDS011;28708;52.224;6.924;2022-12-10T01:38:55;119.43;;;55.75;;
43086;SDS011;28708;52.224;6.924;2022-12-10T01:41:26;248.57;;;57.93;;
43086;SDS011;28708;52.224;6.924;2022-12-10T01:44:00;247.87;;;59.00;;
43086;SDS011;28708;52.224;6.924;2022-12-10T01:46:29;197.20;;;61.07;;
43086;SDS011;28708;52.224;6.924;2022-12-10T01:48:56;176.03;;;58.60;;
43086;SDS011;28708;52.224;6.924;2022-12-10T01:51:24;153.63;;;57.53;;
43086;SDS011;28708;52.224;6.924;2022-12-10T01:53:50;192.93;;;62.40;;
43086;SDS011;28708;52.224;6.924;2022-12-10T01:56:17;155.60;;;59.93;;
43086;SDS011;28708;52.224;6.924;2022-12-10T01:58:44;151.73;;;59.83;;
43086;SDS011;28708;52.224;6.924;2022-12-10T02:01:30;148.20;;;58.97;;
43086;SDS011;28708;52.224;6.924;2022-12-10T02:04:10;208.67;;;59.77;;
43086;SDS011;28708;52.224;6.924;2022-12-10T02:12:16;134.10;;;55.43;;
43086;SDS011;28708;52.224;6.924;2022-12-10T02:14:59;145.37;;;54.53;;
43086;SDS011;28708;52.224;6.924;2022-12-10T02:17:36;196.27;;;55.20;;
43086;SDS011;28708;52.224;6.924;2022-12-10T02:20:41;162.73;;;57.40;;
43086;SDS011;28708;52.224;6.924;2022-12-10T02:23:12;125.87;;;51.77;;
43086;SDS011;28708;52.224;6.924;2022-12-10T02:31:32;125.53;;;54.83;;
43086;SDS011;28708;52.224;6.924;2022-12-10T02:34:00;116.47;;;53.03;;
43086;SDS011;28708;52.224;6.924;2022-12-10T02:36:30;115.80;;;50.90;;
43086;SDS011;28708;52.224;6.924;2022-12-10T02:39:00;123.70;;;53.07;;
43086;SDS011;28708;52.224;6.924;2022-12-10T02:41:30;109.87;;;48.97;;
43086;SDS011;28708;52.224;6.924;2022-12-10T02:44:00;111.10;;;49.33;;
43086;SDS011;28708;52.224;6.924;2022-12-10T02:46:30;119.35;;;49.92;;
43086;SDS011;28708;52.224;6.924;2022-12-10T02:49:01;102.03;;;49.07;;
43086;SDS011;28708;52.224;6.924;2022-12-10T02:51:29;121.77;;;50.43;;
43086;SDS011;28708;52.224;6.924;2022-12-10T02:53:59;92.40;;;46.10;;
43086;SDS011;28708;52.224;6.924;2022-12-10T02:59:39;112.68;;;48.45;;
43086;SDS011;28708;52.224;6.924;2022-12-10T03:05:17;92.97;;;47.17;;
43086;SDS011;28708;52.224;6.924;2022-12-10T03:07:51;165.17;;;87.07;;
43086;SDS011;28708;52.224;6.924;2022-12-10T03:10:31;120.37;;;49.23;;
43086;SDS011;28708;52.224;6.924;2022-12-10T03:13:07;98.47;;;47.40;;
43086;SDS011;28708;52.224;6.924;2022-12-10T03:15:36;96.75;;;45.83;;
43086;SDS011;28708;52.224;6.924;2022-12-10T03:18:05;103.53;;;47.50;;
43086;SDS011;28708;52.224;6.924;2022-12-10T03:20:33;103.80;;;49.00;;
43086;SDS011;28708;52.224;6.924;2022-12-10T03:23:03;105.50;;;50.97;;
43086;SDS011;28708;52.224;6.924;2022-12-10T03:25:30;99.00;;;47.73;;
43086;SDS011;28708;52.224;6.924;2022-12-10T03:27:58;102.93;;;50.80;;
43086;SDS011;28708;52.224;6.924;2022-12-10T03:30:25;100.17;;;48.17;;
43086;SDS011;28708;52.224;6.924;2022-12-10T03:32:51;96.63;;;47.60;;
43086;SDS011;28708;52.224;6.924;2022-12-10T03:35:17;91.47;;;45.87;;
43086;SDS011;28708;52.224;6.924;2022-12-10T03:37:47;100.47;;;45.60;;
43086;SDS011;28708;52.224;6.924;2022-12-10T03:40:14;98.33;;;48.23;;
43086;SDS011;28708;52.224;6.924;2022-12-10T03:42:43;100.30;;;47.57;;
43086;SDS011;28708;52.224;6.924;2022-12-10T03:45:09;106.57;;;49.10;;
43086;SDS011;28708;52.224;6.924;2022-12-10T03:47:35;101.27;;;47.90;;
43086;SDS011;28708;52.224;6.924;2022-12-10T03:50:00;102.57;;;48.93;;
43086;SDS011;28708;52.224;6.924;2022-12-10T03:52:26;99.77;;;45.70;;
43086;SDS011;28708;52.224;6.924;2022-12-10T03:54:52;97.17;;;45.77;;
43086;SDS011;28708;52.224;6.924;2022-12-10T03:57:17;95.37;;;46.50;;
43086;SDS011;28708;52.224;6.924;2022-12-10T03:59:43;89.13;;;44.37;;
43086;SDS011;28708;52.224;6.924;2022-12-10T04:02:09;89.73;;;43.93;;
43086;SDS011;28708;52.224;6.924;2022-12-10T04:04:35;89.77;;;45.30;;
43086;SDS011;28708;52.224;6.924;2022-12-10T04:07:01;89.43;;;43.47;;
43086;SDS011;28708;52.224;6.924;2022-12-10T04:09:27;90.43;;;44.33;;
43086;SDS011;28708;52.224;6.924;2022-12-10T04:11:56;95.03;;;44.70;;
43086;SDS011;28708;52.224;6.924;2022-12-10T04:14:23;85.18;;;42.33;;
43086;SDS011;28708;52.224;6.924;2022-12-10T04:17:08;87.10;;;40.97;;
43086;SDS011;28708;52.224;6.924;2022-12-10T04:19:33;85.87;;;41.00;;
43086;SDS011;28708;52.224;6.924;2022-12-10T04:22:00;85.40;;;42.97;;
43086;SDS011;28708;52.224;6.924;2022-12-10T04:24:44;87.27;;;42.80;;
43086;SDS011;28708;52.224;6.924;2022-12-10T04:27:29;92.00;;;45.83;;
43086;SDS011;28708;52.224;6.924;2022-12-10T04:29:57;87.60;;;44.60;;
43086;SDS011;28708;52.224;6.924;2022-12-10T04:32:24;81.20;;;41.13;;
43086;SDS011;28708;52.224;6.924;2022-12-10T04:34:51;85.27;;;42.17;;
43086;SDS011;28708;52.224;6.924;2022-12-10T04:37:17;79.93;;;40.50;;
43086;SDS011;28708;52.224;6.924;2022-12-10T04:39:44;86.37;;;41.53;;
43086;SDS011;28708;52.224;6.924;2022-12-10T04:42:09;79.70;;;40.40;;
43086;SDS011;28708;52.224;6.924;2022-12-10T04:44:36;82.17;;;41.37;;
43086;SDS011;28708;52.224;6.924;2022-12-10T04:47:06;81.53;;;41.17;;
43086;SDS011;28708;52.224;6.924;2022-12-10T04:49:33;81.40;;;40.97;;
43086;SDS011;28708;52.224;6.924;2022-12-10T04:51:59;78.00;;;39.30;;
43086;SDS011;28708;52.224;6.924;2022-12-10T04:54:25;81.30;;;42.20;;
43086;SDS011;28708;52.224;6.924;2022-12-10T04:56:52;80.20;;;40.77;;
43086;SDS011;28708;52.224;6.924;2022-12-10T04:59:18;83.00;;;40.43;;
43086;SDS011;28708;52.224;6.924;2022-12-10T05:01:44;80.90;;;40.93;;
43086;SDS011;28708;52.224;6.924;2022-12-10T05:04:11;79.83;;;40.27;;
43086;SDS011;28708;52.224;6.924;2022-12-10T05:06:39;77.60;;;39.83;;
43086;SDS011;28708;52.224;6.924;2022-12-10T05:09:05;71.20;;;37.03;;
43086;SDS011;28708;52.224;6.924;2022-12-10T05:11:32;75.97;;;39.53;;
43086;SDS011;28708;52.224;6.924;2022-12-10T05:13:59;77.03;;;38.73;;
43086;SDS011;28708;52.224;6.924;2022-12-10T05:16:26;75.53;;;39.00;;
43086;SDS011;28708;52.224;6.924;2022-12-10T05:18:54;72.73;;;38.13;;
43086;SDS011;28708;52.224;6.924;2022-12-10T05:21:21;70.00;;;37.20;;
43086;SDS011;28708;52.224;6.924;2022-12-10T05:23:49;75.67;;;37.43;;
43086;SDS011;28708;52.224;6.924;2022-12-10T05:26:17;73.10;;;37.23;;
43086;SDS011;28708;52.224;6.924;2022-12-10T05:28:47;76.57;;;39.23;;
43086;SDS011;28708;52.224;6.924;2022-12-10T05:33:47;72.35;;;37.80;;
43086;SDS011;28708;52.224;6.924;2022-12-10T05:36:14;72.53;;;37.50;;
43086;SDS011;28708;52.224;6.924;2022-12-10T05:38:42;76.73;;;38.67;;
43086;SDS011;28708;52.224;6.924;2022-12-10T05:41:10;69.50;;;36.10;;
43086;SDS011;28708;52.224;6.924;2022-12-10T05:43:38;67.35;;;35.35;;
43086;SDS011;28708;52.224;6.924;2022-12-10T05:46:05;66.47;;;36.47;;
43086;SDS011;28708;52.224;6.924;2022-12-10T05:48:33;67.27;;;35.43;;
43086;SDS011;28708;52.224;6.924;2022-12-10T05:51:03;69.67;;;36.30;;
43086;SDS011;28708;52.224;6.924;2022-12-10T05:56:05;73.30;;;35.80;;
43086;SDS011;28708;52.224;6.924;2022-12-10T05:58:33;71.37;;;36.13;;
43086;SDS011;28708;52.224;6.924;2022-12-10T06:01:00;71.23;;;36.67;;
43086;SDS011;28708;52.224;6.924;2022-12-10T06:03:30;73.83;;;37.97;;
43086;SDS011;28708;52.224;6.924;2022-12-10T06:05:56;75.43;;;36.97;;
43086;SDS011;28708;52.224;6.924;2022-12-10T06:08:22;70.07;;;35.87;;
43086;SDS011;28708;52.224;6.924;2022-12-10T06:10:48;77.63;;;38.73;;
43086;SDS011;28708;52.224;6.924;2022-12-10T06:13:13;74.30;;;39.60;;
43086;SDS011;28708;52.224;6.924;2022-12-10T06:15:39;68.97;;;37.17;;
43086;SDS011;28708;52.224;6.924;2022-12-10T06:18:06;72.97;;;37.10;;
43086;SDS011;28708;52.224;6.924;2022-12-10T06:20:32;75.03;;;37.83;;
43086;SDS011;28708;52.224;6.924;2022-12-10T06:22:58;71.73;;;38.40;;
43086;SDS011;28708;52.224;6.924;2022-12-10T06:25:23;85.63;;;44.57;;
43086;SDS011;28708;52.224;6.924;2022-12-10T06:27:49;77.37;;;40.47;;
43086;SDS011;28708;52.224;6.924;2022-12-10T06:30:15;71.40;;;37.50;;
43086;SDS011;28708;52.224;6.924;2022-12-10T06:32:41;80.67;;;39.63;;
43086;SDS011;28708;52.224;6.924;2022-12-10T06:35:08;80.00;;;39.70;;
43086;SDS011;28708;52.224;6.924;2022-12-10T06:37:35;86.57;;;45.47;;
43086;SDS011;28708;52.224;6.924;2022-12-10T06:40:02;91.10;;;46.80;;
43086;SDS011;28708;52.224;6.924;2022-12-10T06:42:28;96.83;;;48.47;;
43086;SDS011;28708;52.224;6.924;2022-12-10T06:44:54;86.30;;;45.03;;
43086;SDS011;28708;52.224;6.924;2022-12-10T06:47:20;88.17;;;46.43;;
43086;SDS011;28708;52.224;6.924;2022-12-10T06:49:45;95.17;;;48.80;;
43086;SDS011;28708;52.224;6.924;2022-12-10T06:52:11;157.10;;;95.77;;
43086;SDS011;28708;52.224;6.924;2022-12-10T06:54:37;133.67;;;74.27;;
43086;SDS011;28708;52.224;6.924;2022-12-10T06:57:02;97.77;;;49.33;;
43086;SDS011;28708;52.224;6.924;2022-12-10T06:59:28;86.07;;;45.77;;
43086;SDS011;28708;52.224;6.924;2022-12-10T07:01:54;92.93;;;49.63;;
43086;SDS011;28708;52.224;6.924;2022-12-10T07:04:19;88.93;;;46.80;;
43086;SDS011;28708;52.224;6.924;2022-12-10T07:06:45;84.47;;;42.00;;
43086;SDS011;28708;52.224;6.924;2022-12-10T07:09:11;80.67;;;41.07;;
43086;SDS011;28708;52.224;6.924;2022-12-10T07:11:37;97.20;;;44.77;;
43086;SDS011;28708;52.224;6.924;2022-12-10T07:14:03;89.97;;;43.33;;
43086;SDS011;28708;52.224;6.924;2022-12-10T07:16:30;89.93;;;41.73;;
43086;SDS011;28708;52.224;6.924;2022-12-10T07:18:57;91.43;;;44.80;;
43086;SDS011;28708;52.224;6.924;2022-12-10T07:21:26;99.43;;;46.10;;
43086;SDS011;28708;52.224;6.924;2022-12-10T07:23:53;97.93;;;45.73;;
43086;SDS011;28708;52.224;6.924;2022-12-10T07:26:23;105.05;;;45.72;;
43086;SDS011;28708;52.224;6.924;2022-12-10T07:28:50;99.70;;;47.77;;
43086;SDS011;28708;52.224;6.924;2022-12-10T07:31:18;96.33;;;44.57;;
43086;SDS011;28708;52.224;6.924;2022-12-10T07:33:44;99.47;;;45.70;;
43086;SDS011;28708;52.224;6.924;2022-12-10T07:36:11;110.33;;;47.33;;
43086;SDS011;28708;52.224;6.924;2022-12-10T07:38:37;109.93;;;49.17;;
43086;SDS011;28708;52.224;6.924;2022-12-10T07:41:07;107.63;;;48.67;;
43086;SDS011;28708;52.224;6.924;2022-12-10T07:43:35;107.07;;;48.23;;
43086;SDS011;28708;52.224;6.924;2022-12-10T07:46:03;104.63;;;47.20;;
43086;SDS011;28708;52.224;6.924;2022-12-10T07:48:33;103.97;;;46.57;;
43086;SDS011;28708;52.224;6.924;2022-12-10T07:51:00;108.17;;;47.00;;
43086;SDS011;28708;52.224;6.924;2022-12-10T07:53:26;96.53;;;44.73;;
43086;SDS011;28708;52.224;6.924;2022-12-10T07:55:52;102.07;;;45.83;;
43086;SDS011;28708;52.224;6.924;2022-12-10T07:58:17;100.97;;;46.50;;
43086;SDS011;28708;52.224;6.924;2022-12-10T08:00:43;93.93;;;45.50;;
43086;SDS011;28708;52.224;6.924;2022-12-10T08:03:09;114.90;;;47.03;;
43086;SDS011;28708;52.224;6.924;2022-12-10T08:05:35;108.83;;;48.50;;
43086;SDS011;28708;52.224;6.924;2022-12-10T08:08:02;110.00;;;49.23;;
43086;SDS011;28708;52.224;6.924;2022-12-10T08:10:28;107.83;;;46.83;;
43086;SDS011;28708;52.224;6.924;2022-12-10T08:12:53;112.97;;;50.10;;
43086;SDS011;28708;52.224;6.924;2022-12-10T08:15:19;108.03;;;48.37;;
43086;SDS011;28708;52.224;6.924;2022-12-10T08:17:45;108.23;;;50.03;;
43086;SDS011;28708;52.224;6.924;2022-12-10T08:20:11;116.37;;;51.90;;
43086;SDS011;28708;52.224;6.924;2022-12-10T08:22:36;114.10;;;49.17;;
43086;SDS011;28708;52.224;6.924;2022-12-10T08:25:04;109.77;;;48.93;;
43086;SDS011;28708;52.224;6.924;2022-12-10T08:27:30;109.80;;;50.03;;
43086;SDS011;28708;52.224;6.924;2022-12-10T08:29:56;102.80;;;48.27;;
43086;SDS011;28708;52.224;6.924;2022-12-10T08:32:21;106.30;;;49.43;;
43086;SDS011;28708;52.224;6.924;2022-12-10T08:34:47;112.13;;;48.63;;
43086;SDS011;28708;52.224;6.924;2022-12-10T08:37:13;101.27;;;45.67;;
43086;SDS011;28708;52.224;6.924;2022-12-10T08:39:39;102.37;;;48.67;;
43086;SDS011;28708;52.224;6.924;2022-12-10T08:42:05;111.43;;;51.30;;
43086;SDS011;28708;52.224;6.924;2022-12-10T08:44:31;115.53;;;52.77;;
43086;SDS011;28708;52.224;6.924;2022-12-10T08:46:57;122.20;;;52.50;;
43086;SDS011;28708;52.224;6.924;2022-12-10T08:49:22;113.27;;;50.73;;
43086;SDS011;28708;52.224;6.924;2022-12-10T08:51:48;115.23;;;50.60;;
43086;SDS011;28708;52.224;6.924;2022-12-10T08:54:14;117.57;;;51.23;;
43086;SDS011;28708;52.224;6.924;2022-12-10T08:56:39;118.00;;;51.80;;
43086;SDS011;28708;52.224;6.924;2022-12-10T08:59:05;113.73;;;50.27;;
43086;SDS011;28708;52.224;6.924;2022-12-10T09:01:31;111.57;;;49.63;;
43086;SDS011;28708;52.224;6.924;2022-12-10T09:03:57;106.33;;;47.10;;
43086;SDS011;28708;52.224;6.924;2022-12-10T09:06:24;107.07;;;47.70;;
43086;SDS011;28708;52.224;6.924;2022-12-10T09:08:50;104.77;;;48.47;;
43086;SDS011;28708;52.224;6.924;2022-12-10T09:11:34;109.27;;;50.93;;
43086;SDS011;28708;52.224;6.924;2022-12-10T09:14:00;120.77;;;52.20;;
43086;SDS011;28708;52.224;6.924;2022-12-10T09:16:31;120.93;;;52.50;;
43086;SDS011;28708;52.224;6.924;2022-12-10T09:18:59;118.10;;;54.20;;
43086;SDS011;28708;52.224;6.924;2022-12-10T09:21:25;121.80;;;54.13;;
43086;SDS011;28708;52.224;6.924;2022-12-10T09:23:51;113.87;;;51.93;;
43086;SDS011;28708;52.224;6.924;2022-12-10T09:26:17;115.33;;;52.27;;
43086;SDS011;28708;52.224;6.924;2022-12-10T09:28:44;116.63;;;49.63;;
43086;SDS011;28708;52.224;6.924;2022-12-10T09:31:11;120.10;;;52.53;;
43086;SDS011;28708;52.224;6.924;2022-12-10T09:33:37;120.03;;;53.63;;
43086;SDS011;28708;52.224;6.924;2022-12-10T09:36:04;117.63;;;51.63;;
43086;SDS011;28708;52.224;6.924;2022-12-10T09:38:35;117.23;;;50.90;;
43086;SDS011;28708;52.224;6.924;2022-12-10T09:41:17;108.33;;;49.30;;
43086;SDS011;28708;52.224;6.924;2022-12-10T09:46:55;118.00;;;52.22;;
43086;SDS011;28708;52.224;6.924;2022-12-10T09:52:28;124.57;;;53.30;;
43086;SDS011;28708;52.224;6.924;2022-12-10T09:55:02;129.13;;;54.87;;
43086;SDS011;28708;52.224;6.924;2022-12-10T09:57:43;125.17;;;53.70;;
43086;SDS011;28708;52.224;6.924;2022-12-10T10:00:26;134.00;;;55.83;;
43086;SDS011;28708;52.224;6.924;2022-12-10T10:02:55;130.37;;;56.60;;
43086;SDS011;28708;52.224;6.924;2022-12-10T10:05:29;135.43;;;56.15;;
43086;SDS011;28708;52.224;6.924;2022-12-10T10:07:58;122.60;;;54.67;;
43086;SDS011;28708;52.224;6.924;2022-12-10T10:10:27;122.53;;;53.73;;
43086;SDS011;28708;52.224;6.924;2022-12-10T10:12:57;126.77;;;54.03;;
43086;SDS011;28708;52.224;6.924;2022-12-10T10:15:33;126.80;;;53.80;;
43086;SDS011;28708;52.224;6.924;2022-12-10T10:18:02;135.80;;;55.77;;
43086;SDS011;28708;52.224;6.924;2022-12-10T10:20:47;128.63;;;55.50;;
43086;SDS011;28708;52.224;6.924;2022-12-10T10:23:15;128.30;;;54.57;;
43086;SDS011;28708;52.224;6.924;2022-12-10T10:25:41;138.10;;;56.57;;
43086;SDS011;28708;52.224;6.924;2022-12-10T10:28:12;146.50;;;57.90;;
43086;SDS011;28708;52.224;6.924;2022-12-10T10:30:43;138.10;;;58.23;;
43086;SDS011;28708;52.224;6.924;2022-12-10T10:33:10;142.93;;;58.20;;
43086;SDS011;28708;52.224;6.924;2022-12-10T10:35:48;138.23;;;56.07;;
43086;SDS011;28708;52.224;6.924;2022-12-10T10:38:22;119.77;;;53.73;;
43086;SDS011;28708;52.224;6.924;2022-12-10T10:40:55;120.73;;;50.97;;
43086;SDS011;28708;52.224;6.924;2022-12-10T10:45:54;108.53;;;46.17;;
43086;SDS011;28708;52.224;6.924;2022-12-10T10:48:26;105.17;;;48.23;;
43086;SDS011;28708;52.224;6.924;2022-12-10T10:50:54;119.23;;;50.10;;
43086;SDS011;28708;52.224;6.924;2022-12-10T10:53:31;116.97;;;49.80;;
43086;SDS011;28708;52.224;6.924;2022-12-10T10:55:59;112.73;;;49.07;;
43086;SDS011;28708;52.224;6.924;2022-12-10T11:01:42;114.90;;;50.73;;
43086;SDS011;28708;52.224;6.924;2022-12-10T11:04:11;114.23;;;48.87;;
43086;SDS011;28708;52.224;6.924;2022-12-10T11:06:41;107.80;;;47.90;;
43086;SDS011;28708;52.224;6.924;2022-12-10T11:09:13;98.57;;;45.70;;
43086;SDS011;28708;52.224;6.924;2022-12-10T11:11:45;103.23;;;45.70;;
43086;SDS011;28708;52.224;6.924;2022-12-10T11:19:44;100.27;;;45.43;;
43086;SDS011;28708;52.224;6.924;2022-12-10T11:22:28;103.83;;;44.57;;
43086;SDS011;28708;52.224;6.924;2022-12-10T11:24:56;100.72;;;44.38;;
43086;SDS011;28708;52.224;6.924;2022-12-10T11:27:32;102.43;;;44.47;;
43086;SDS011;28708;52.224;6.924;2022-12-10T11:30:22;111.47;;;47.80;;
43086;SDS011;28708;52.224;6.924;2022-12-10T11:46:50;114.82;;;46.28;;
43086;SDS011;28708;52.224;6.924;2022-12-10T11:49:51;120.10;;;48.50;;
43086;SDS011;28708;52.224;6.924;2022-12-10T12:00:33;121.97;;;47.67;;
43086;SDS011;28708;52.224;6.924;2022-12-10T12:04:02;120.00;;;47.00;;
43086;SDS011;28708;52.224;6.924;2022-12-10T12:06:39;121.10;;;46.37;;
43086;SDS011;28708;52.224;6.924;2022-12-10T12:12:13;137.73;;;51.70;;
43086;SDS011;28708;52.224;6.924;2022-12-10T12:14:55;142.93;;;52.13;;
43086;SDS011;28708;52.224;6.924;2022-12-10T12:17:26;152.70;;;52.67;;
43086;SDS011;28708;52.224;6.924;2022-12-10T12:20:00;148.10;;;53.33;;
43086;SDS011;28708;52.224;6.924;2022-12-10T12:22:34;137.97;;;50.53;;
43086;SDS011;28708;52.224;6.924;2022-12-10T12:25:08;138.67;;;51.33;;
43086;SDS011;28708;52.224;6.924;2022-12-10T12:27:43;139.10;;;51.20;;
43086;SDS011;28708;52.224;6.924;2022-12-10T12:30:18;139.07;;;53.57;;
43086;SDS011;28708;52.224;6.924;2022-12-10T12:33:02;136.33;;;52.00;;
43086;SDS011;28708;52.224;6.924;2022-12-10T12:35:38;140.27;;;53.20;;
43086;SDS011;28708;52.224;6.924;2022-12-10T12:38:26;145.13;;;53.63;;
43086;SDS011;28708;52.224;6.924;2022-12-10T12:43:44;132.27;;;51.00;;
43086;SDS011;28708;52.224;6.924;2022-12-10T12:46:19;129.60;;;49.87;;
43086;SDS011;28708;52.224;6.924;2022-12-10T12:49:37;148.23;;;53.17;;
43086;SDS011;28708;52.224;6.924;2022-12-10T12:51:39;158.27;;;53.10;;
43086;SDS011;28708;52.224;6.924;2022-12-10T12:54:24;144.40;;;52.30;;
43086;SDS011;28708;52.224;6.924;2022-12-10T12:57:06;155.57;;;54.33;;
43086;SDS011;28708;52.224;6.924;2022-12-10T13:05:12;169.90;;;57.17;;
43086;SDS011;28708;52.224;6.924;2022-12-10T13:08:31;158.33;;;53.93;;
43086;SDS011;28708;52.224;6.924;2022-12-10T13:10:57;165.40;;;54.60;;
43086;SDS011;28708;52.224;6.924;2022-12-10T13:13:25;145.47;;;52.80;;
43086;SDS011;28708;52.224;6.924;2022-12-10T13:15:56;152.43;;;55.47;;
43086;SDS011;28708;52.224;6.924;2022-12-10T13:18:42;146.50;;;54.00;;
43086;SDS011;28708;52.224;6.924;2022-12-10T13:21:25;160.23;;;55.40;;
43086;SDS011;28708;52.224;6.924;2022-12-10T13:23:53;155.73;;;55.17;;
43086;SDS011;28708;52.224;6.924;2022-12-10T13:26:30;143.90;;;52.77;;
43086;SDS011;28708;52.224;6.924;2022-12-10T13:29:10;156.77;;;53.90;;
43086;SDS011;28708;52.224;6.924;2022-12-10T13:31:55;159.90;;;54.33;;
43086;SDS011;28708;52.224;6.924;2022-12-10T13:34:37;156.90;;;54.97;;
43086;SDS011;28708;52.224;6.924;2022-12-10T13:37:05;157.93;;;54.37;;
43086;SDS011;28708;52.224;6.924;2022-12-10T13:39:35;160.20;;;53.87;;
43086;SDS011;28708;52.224;6.924;2022-12-10T13:47:27;161.97;;;54.70;;
43086;SDS011;28708;52.224;6.924;2022-12-10T13:50:15;179.90;;;61.43;;
43086;SDS011;28708;52.224;6.924;2022-12-10T14:00:32;164.87;;;55.80;;
43086;SDS011;28708;52.224;6.924;2022-12-10T14:06:15;168.90;;;57.40;;
43086;SDS011;28708;52.224;6.924;2022-12-10T14:09:33;169.70;;;55.23;;
43086;SDS011;28708;52.224;6.924;2022-12-10T14:14:31;194.33;;;61.83;;
43086;SDS011;28708;52.224;6.924;2022-12-10T14:17:19;195.77;;;58.50;;
43086;SDS011;28708;52.224;6.924;2022-12-10T14:19:49;194.27;;;57.57;;
43086;SDS011;28708;52.224;6.924;2022-12-10T14:22:20;177.88;;;58.05;;
43086;SDS011;28708;52.224;6.924;2022-12-10T14:25:06;162.63;;;52.90;;
43086;SDS011;28708;52.224;6.924;2022-12-10T14:27:43;168.27;;;56.90;;
43086;SDS011;28708;52.224;6.924;2022-12-10T14:32:48;205.47;;;60.63;;
43086;SDS011;28708;52.224;6.924;2022-12-10T14:35:20;189.13;;;57.83;;
43086;SDS011;28708;52.224;6.924;2022-12-10T14:37:48;152.57;;;49.97;;
43086;SDS011;28708;52.224;6.924;2022-12-10T14:40:19;163.07;;;53.63;;
43086;SDS011;28708;52.224;6.924;2022-12-10T14:43:05;186.93;;;57.23;;
43086;SDS011;28708;52.224;6.924;2022-12-10T14:45:58;182.90;;;58.77;;
43086;SDS011;28708;52.224;6.924;2022-12-10T14:48:24;182.50;;;58.37;;
43086;SDS011;28708;52.224;6.924;2022-12-10T14:50:51;172.37;;;52.40;;
43086;SDS011;28708;52.224;6.924;2022-12-10T14:53:22;175.50;;;55.60;;
43086;SDS011;28708;52.224;6.924;2022-12-10T14:55:50;206.03;;;60.00;;
43086;SDS011;28708;52.224;6.924;2022-12-10T14:58:30;196.85;;;58.20;;
43086;SDS011;28708;52.224;6.924;2022-12-10T15:01:02;191.67;;;58.23;;
43086;SDS011;28708;52.224;6.924;2022-12-10T15:03:30;191.50;;;58.10;;
43086;SDS011;28708;52.224;6.924;2022-12-10T15:06:01;197.57;;;61.47;;
43086;SDS011;28708;52.224;6.924;2022-12-10T15:08:31;188.47;;;57.57;;
43086;SDS011;28708;52.224;6.924;2022-12-10T15:10:58;193.50;;;59.80;;
43086;SDS011;28708;52.224;6.924;2022-12-10T15:16:04;177.47;;;53.93;;
43086;SDS011;28708;52.224;6.924;2022-12-10T15:18:31;179.77;;;56.40;;
43086;SDS011;28708;52.224;6.924;2022-12-10T15:21:19;199.10;;;57.33;;
43086;SDS011;28708;52.224;6.924;2022-12-10T15:23:48;199.57;;;56.73;;
43086;SDS011;28708;52.224;6.924;2022-12-10T15:26:27;193.50;;;58.10;;
43086;SDS011;28708;52.224;6.924;2022-12-10T15:29:27;181.30;;;55.50;;
43086;SDS011;28708;52.224;6.924;2022-12-10T15:34:39;179.10;;;55.03;;
43086;SDS011;28708;52.224;6.924;2022-12-10T15:37:14;176.37;;;53.47;;
43086;SDS011;28708;52.224;6.924;2022-12-10T15:39:47;172.13;;;53.73;;
43086;SDS011;28708;52.224;6.924;2022-12-10T15:45:18;160.87;;;54.13;;
43086;SDS011;28708;52.224;6.924;2022-12-10T15:47:53;179.87;;;56.67;;
43086;SDS011;28708;52.224;6.924;2022-12-10T15:50:23;184.07;;;56.83;;
43086;SDS011;28708;52.224;6.924;2022-12-10T15:52:50;168.77;;;54.43;;
43086;SDS011;28708;52.224;6.924;2022-12-10T15:55:16;179.27;;;55.50;;
43086;SDS011;28708;52.224;6.924;2022-12-10T15:57:43;179.00;;;55.43;;
43086;SDS011;28708;52.224;6.924;2022-12-10T16:00:20;165.43;;;53.00;;
43086;SDS011;28708;52.224;6.924;2022-12-10T16:03:00;160.07;;;52.03;;
43086;SDS011;28708;52.224;6.924;2022-12-10T16:07:56;171.37;;;54.60;;
43086;SDS011;28708;52.224;6.924;2022-12-10T16:10:25;161.57;;;54.08;;
43086;SDS011;28708;52.224;6.924;2022-12-10T16:13:02;168.17;;;54.13;;
43086;SDS011;28708;52.224;6.924;2022-12-10T16:15:31;148.17;;;51.80;;
43086;SDS011;28708;52.224;6.924;2022-12-10T16:18:03;146.37;;;51.13;;